createdAt,value
2019-04-27T00:01:05.186Z,25.92
2019-04-27T00:03:36.469Z,25.82
2019-04-27T00:06:14.656Z,24.67
2019-04-27T00:08:44.977Z,22.75
2019-04-27T00:11:15.145Z,21.82
2019-04-27T00:13:45.388Z,23.65
2019-04-27T00:16:15.906Z,26.73
2019-04-27T00:18:49.863Z,27.25
2019-04-27T00:21:33.575Z,26.62
2019-04-27T00:24:04.717Z,23.45
2019-04-27T00:26:33.537Z,26.07
2019-04-27T00:29:05.060Z,21.48
2019-04-27T00:31:33.811Z,28.07
2019-04-27T00:34:03.568Z,24.32
2019-04-27T00:36:53.452Z,24.55
2019-04-27T00:39:36.228Z,21.52
2019-04-27T00:42:05.036Z,27.00
2019-04-27T00:44:37.388Z,22.48
2019-04-27T00:47:07.669Z,27.62
2019-04-27T00:49:38.979Z,31.00
2019-04-27T00:52:07.750Z,24.45
2019-04-27T00:54:39.914Z,23.20
2019-04-27T00:57:26.956Z,29.35
2019-04-27T01:00:05.553Z,22.80
2019-04-27T01:02:43.553Z,27.65
2019-04-27T01:05:17.605Z,29.40
2019-04-27T01:07:48.711Z,29.55
2019-04-27T01:10:20.339Z,33.28
2019-04-27T01:12:49.049Z,32.28
2019-04-27T01:15:17.838Z,23.75
2019-04-27T01:17:46.620Z,26.25
2019-04-27T01:20:24.957Z,28.70
2019-04-27T01:22:53.656Z,27.48
2019-04-27T01:25:24.042Z,30.08
2019-04-27T01:27:59.821Z,23.55
2019-04-27T01:30:42.328Z,26.57
2019-04-27T01:33:14.499Z,25.85
2019-04-27T01:35:43.257Z,26.02
2019-04-27T01:38:11.970Z,27.70
2019-04-27T01:40:41.036Z,25.02
2019-04-27T01:43:09.855Z,24.70
2019-04-27T01:45:39.156Z,29.07
2019-04-27T01:48:20.845Z,22.67
2019-04-27T01:50:39.262Z,28.00
2019-04-27T01:53:09.118Z,26.27
2019-04-27T01:55:45.760Z,26.50
2019-04-27T01:58:14.669Z,26.33
2019-04-27T02:00:53.931Z,30.05
2019-04-27T02:03:24.832Z,28.85
2019-04-27T02:05:55.046Z,26.05
2019-04-27T02:08:23.813Z,26.40
2019-04-27T02:10:52.726Z,28.02
2019-04-27T02:13:22.949Z,32.25
2019-04-27T02:15:51.817Z,30.20
2019-04-27T02:18:34.690Z,30.43
2019-04-27T02:20:52.878Z,36.93
2019-04-27T02:23:21.762Z,37.80
2019-04-27T02:25:50.759Z,37.20
2019-04-27T02:28:37.273Z,34.92
2019-04-27T02:31:09.806Z,35.43
2019-04-27T02:33:49.858Z,34.63
2019-04-27T02:36:20.211Z,35.38
2019-04-27T02:38:51.277Z,35.40
2019-04-27T02:41:20.089Z,35.65
2019-04-27T02:43:53.535Z,35.23
2019-04-27T02:46:22.330Z,40.28
2019-04-27T02:49:00.211Z,36.05
2019-04-27T02:51:46.584Z,35.00
2019-04-27T02:54:15.310Z,38.15
2019-04-27T02:56:44.099Z,34.33
2019-04-27T02:59:12.908Z,27.98
2019-04-27T03:01:53.222Z,33.13
2019-04-27T03:04:20.803Z,33.30
2019-04-27T03:06:50.174Z,30.43
2019-04-27T03:09:20.560Z,33.40
2019-04-27T03:11:50.090Z,30.72
2019-04-27T03:14:29.789Z,33.65
2019-04-27T03:16:55.619Z,31.48
2019-04-27T03:19:35.242Z,33.78
2019-04-27T03:22:05.590Z,32.65
2019-04-27T03:24:52.268Z,29.55
2019-04-27T03:27:22.510Z,31.12
2019-04-27T03:29:53.839Z,27.35
2019-04-27T03:32:25.334Z,33.20
2019-04-27T03:34:56.686Z,31.25
2019-04-27T03:37:25.830Z,29.02
2019-04-27T03:39:54.689Z,29.32
2019-04-27T03:42:23.335Z,30.17
2019-04-27T03:44:52.012Z,33.35
2019-04-27T03:47:21.697Z,35.52
2019-04-27T03:49:50.908Z,33.67
2019-04-27T03:52:29.758Z,32.85
2019-04-27T03:55:10.151Z,34.50
2019-04-27T03:57:40.408Z,29.00
2019-04-27T04:00:20.139Z,33.55
2019-04-27T04:02:50.201Z,35.08
2019-04-27T04:05:22.665Z,29.45
2019-04-27T04:07:51.340Z,29.48
2019-04-27T04:10:20.331Z,30.80
2019-04-27T04:13:01.307Z,27.22
2019-04-27T04:15:44.715Z,33.67
2019-04-27T04:18:14.841Z,30.45
2019-04-27T04:20:43.629Z,31.23
2019-04-27T04:23:12.426Z,30.65
2019-04-27T04:25:45.096Z,33.83
2019-04-27T04:28:13.799Z,36.30
2019-04-27T04:30:42.591Z,33.95
2019-04-27T04:33:11.269Z,34.00
2019-04-27T04:35:40.131Z,29.75
2019-04-27T04:38:10.432Z,33.50
2019-04-27T04:40:50.242Z,35.33
2019-04-27T04:43:36.325Z,36.20
2019-04-27T04:46:23.272Z,31.35
2019-04-27T04:48:52.137Z,27.00
2019-04-27T04:51:24.885Z,29.65
2019-04-27T04:53:56.445Z,28.50
2019-04-27T04:56:25.539Z,32.53
2019-04-27T04:58:57.389Z,31.60
2019-04-27T05:01:29.869Z,30.77
2019-04-27T05:03:59.171Z,30.37
2019-04-27T05:06:29.247Z,30.72
2019-04-27T05:09:00.947Z,28.35
2019-04-27T05:11:30.034Z,34.38
2019-04-27T05:14:01.399Z,25.00
2019-04-27T05:16:32.784Z,34.08
2019-04-27T05:19:01.412Z,30.62
2019-04-27T05:21:34.975Z,28.60
2019-04-27T05:26:33.278Z,31.15
2019-04-27T05:29:03.942Z,32.67
2019-04-27T05:31:34.054Z,33.23
2019-04-27T05:34:03.152Z,25.30
2019-04-27T05:36:32.243Z,29.57
2019-04-27T05:39:01.337Z,27.22
2019-04-27T05:41:31.158Z,21.12
2019-04-27T05:44:03.225Z,20.85
2019-04-27T05:46:51.169Z,26.57
2019-04-27T05:49:31.313Z,23.32
2019-04-27T05:52:00.328Z,24.25
2019-04-27T05:54:31.173Z,21.60
2019-04-27T05:57:00.328Z,22.25
2019-04-27T05:59:29.916Z,30.25
2019-04-27T06:01:59.364Z,22.93
2019-04-27T06:04:34.681Z,22.82
2019-04-27T06:07:03.879Z,21.50
2019-04-27T06:09:33.178Z,24.30
2019-04-27T06:12:06.372Z,24.05
2019-04-27T06:14:37.034Z,22.82
2019-04-27T06:17:06.309Z,19.75
2019-04-27T06:19:35.398Z,18.12
2019-04-27T06:22:04.745Z,18.00
2019-04-27T06:24:33.888Z,18.37
2019-04-27T06:27:02.988Z,19.00
2019-04-27T06:29:32.079Z,19.98
2019-04-27T06:32:01.173Z,25.15
2019-04-27T06:34:30.967Z,20.52
2019-04-27T06:37:00.435Z,20.75
2019-04-27T06:39:29.925Z,22.25
2019-04-27T06:42:01.362Z,24.30
2019-04-27T06:44:30.640Z,20.40
2019-04-27T06:46:59.738Z,21.65
2019-04-27T06:49:29.485Z,24.60
2019-04-27T06:51:58.861Z,32.35
2019-04-27T06:54:28.830Z,29.60
2019-04-27T06:56:59.293Z,27.40
2019-04-27T06:59:28.994Z,31.37
2019-04-27T07:01:59.150Z,20.50
2019-04-27T07:04:29.972Z,24.80
2019-04-27T07:07:01.731Z,23.12
2019-04-27T07:09:34.696Z,24.37
2019-04-27T07:12:03.895Z,23.10
2019-04-27T07:14:32.993Z,21.70
2019-04-27T07:17:02.183Z,23.15
2019-04-27T07:19:31.346Z,31.73
2019-04-27T07:22:04.810Z,24.12
2019-04-27T07:24:36.333Z,27.07
2019-04-27T07:27:05.935Z,23.52
2019-04-27T07:29:39.049Z,27.52
2019-04-27T07:32:09.301Z,21.05
2019-04-27T07:34:42.579Z,26.30
2019-04-27T07:37:16.656Z,22.93
2019-04-27T07:39:45.753Z,19.87
2019-04-27T07:42:14.943Z,20.95
2019-04-27T07:44:45.679Z,23.20
2019-04-27T07:47:31.581Z,22.85
2019-04-27T07:50:01.477Z,29.60
2019-04-27T07:52:30.787Z,27.02
2019-04-27T07:55:00.034Z,31.73
2019-04-27T07:57:33.680Z,21.27
2019-04-27T08:00:02.900Z,20.88
2019-04-27T08:02:33.001Z,19.90
2019-04-27T08:05:02.504Z,19.45
2019-04-27T08:07:31.600Z,18.02
2019-04-27T08:10:05.403Z,19.12
2019-04-27T08:12:34.508Z,16.45
2019-04-27T08:15:03.695Z,18.50
2019-04-27T08:17:36.141Z,23.77
2019-04-27T08:20:09.195Z,19.57
2019-04-27T08:22:39.348Z,18.32
2019-04-27T08:25:12.796Z,22.98
2019-04-27T08:27:50.596Z,23.77
2019-04-27T08:30:22.155Z,20.75
2019-04-27T08:32:53.901Z,20.90
2019-04-27T08:35:23.081Z,20.52
2019-04-27T08:37:52.170Z,21.90
2019-04-27T08:40:21.476Z,21.75
2019-04-27T08:42:51.274Z,20.72
2019-04-27T08:45:21.810Z,24.25
2019-04-27T08:47:52.030Z,25.60
2019-04-27T08:50:21.024Z,17.87
2019-04-27T08:52:50.421Z,18.45
2019-04-27T08:55:19.729Z,26.35
2019-04-27T08:57:49.211Z,21.00
2019-04-27T09:00:19.969Z,20.97
2019-04-27T09:02:50.218Z,20.92
2019-04-27T09:05:21.325Z,28.40
2019-04-27T09:07:59.718Z,24.57
2019-04-27T09:10:30.581Z,22.00
2019-04-27T09:13:20.054Z,17.05
2019-04-27T09:16:00.075Z,21.77
2019-04-27T09:18:33.841Z,21.87
2019-04-27T09:21:04.433Z,19.35
2019-04-27T09:23:33.529Z,20.27
2019-04-27T09:26:02.625Z,21.97
2019-04-27T09:28:31.823Z,20.72
2019-04-27T09:31:00.925Z,24.37
2019-04-27T09:33:30.971Z,22.45
2019-04-27T09:36:00.152Z,23.30
2019-04-27T09:38:29.791Z,20.32
2019-04-27T09:40:59.163Z,16.77
2019-04-27T09:43:28.231Z,20.65
2019-04-27T09:45:57.327Z,22.27
2019-04-27T09:48:26.421Z,20.57
2019-04-27T09:50:55.994Z,23.07
2019-04-27T09:53:27.069Z,26.37
2019-04-27T09:55:56.374Z,23.45
2019-04-27T09:58:26.492Z,21.42
2019-04-27T10:00:56.839Z,18.75
2019-04-27T10:03:26.638Z,23.50
2019-04-27T10:05:57.065Z,24.47
2019-04-27T10:08:26.352Z,23.85
2019-04-27T10:10:56.657Z,21.68
2019-04-27T10:13:27.471Z,17.15
2019-04-27T10:15:56.531Z,22.15
2019-04-27T10:18:26.550Z,22.67
2019-04-27T10:20:59.698Z,21.50
2019-04-27T10:23:30.350Z,24.07
2019-04-27T10:26:02.949Z,24.82
2019-04-27T10:28:33.038Z,16.50
2019-04-27T10:31:04.792Z,21.55
2019-04-27T10:33:35.769Z,20.65
2019-04-27T10:36:06.333Z,20.27
2019-04-27T10:38:35.953Z,22.82
2019-04-27T10:41:05.665Z,22.73
2019-04-27T10:43:38.469Z,18.65
2019-04-27T10:46:07.551Z,17.57
2019-04-27T10:48:36.808Z,27.37
2019-04-27T10:51:07.867Z,22.27
2019-04-27T10:53:38.906Z,28.12
2019-04-27T10:56:07.523Z,23.50
2019-04-27T10:58:37.635Z,20.15
2019-04-27T11:01:08.267Z,18.05
2019-04-27T11:03:57.317Z,22.90
2019-04-27T11:06:42.063Z,23.45
2019-04-27T11:09:16.406Z,28.95
2019-04-27T11:11:46.370Z,39.80
2019-04-27T11:14:16.751Z,34.58
2019-04-27T11:16:46.128Z,30.00
2019-04-27T11:19:17.807Z,31.55
2019-04-27T11:21:46.902Z,27.50
2019-04-27T11:24:16.060Z,37.58
2019-04-27T11:26:46.568Z,31.90
2019-04-27T11:29:15.822Z,35.35
2019-04-27T11:31:46.398Z,30.45
2019-04-27T11:34:15.754Z,27.10
2019-04-27T11:36:47.421Z,31.37
2019-04-27T11:39:19.701Z,31.52
2019-04-27T11:41:47.746Z,30.23
2019-04-27T11:44:17.101Z,29.77
2019-04-27T11:46:50.056Z,29.80
2019-04-27T11:49:19.126Z,38.00
2019-04-27T11:51:48.221Z,27.55
2019-04-27T11:54:17.341Z,22.67
2019-04-27T11:56:48.871Z,31.85
2019-04-27T11:59:20.441Z,25.17
2019-04-27T12:01:49.618Z,31.68
2019-04-27T12:04:18.714Z,24.80
2019-04-27T12:06:47.809Z,19.75
2019-04-27T12:09:17.022Z,22.48
2019-04-27T12:11:46.099Z,26.87
2019-04-27T12:14:15.304Z,21.62
2019-04-27T12:16:46.057Z,20.37
2019-04-27T12:19:16.419Z,25.10
2019-04-27T12:21:46.354Z,23.32
2019-04-27T12:24:19.693Z,19.00
2019-04-27T12:26:55.563Z,22.67
2019-04-27T12:29:26.774Z,19.42
2019-04-27T12:31:59.524Z,30.45
2019-04-27T12:34:28.639Z,24.70
2019-04-27T12:36:58.962Z,22.32
2019-04-27T12:39:27.979Z,20.32
2019-04-27T12:41:57.048Z,22.00
2019-04-27T12:44:26.245Z,24.50
2019-04-27T12:46:57.538Z,22.80
2019-04-27T12:49:26.258Z,19.85
2019-04-27T12:51:55.870Z,20.55
2019-04-27T12:54:31.676Z,29.77
2019-04-27T12:57:01.869Z,27.22
2019-04-27T12:59:49.184Z,21.30
2019-04-27T13:02:22.737Z,24.63
2019-04-27T13:07:20.054Z,21.37
2019-04-27T13:09:53.957Z,19.92
2019-04-27T13:12:23.465Z,19.32
2019-04-27T13:14:53.580Z,23.32
2019-04-27T13:17:27.691Z,18.70
2019-04-27T13:19:56.896Z,28.07
2019-04-27T13:22:25.986Z,20.75
2019-04-27T13:24:56.556Z,22.22
2019-04-27T13:27:26.972Z,21.95
2019-04-27T13:29:57.411Z,25.55
2019-04-27T13:32:26.674Z,25.50
2019-04-27T13:34:56.717Z,21.07
2019-04-27T13:37:33.392Z,21.97
2019-04-27T13:40:07.121Z,17.92
2019-04-27T13:42:35.072Z,23.87
2019-04-27T13:45:06.439Z,27.50
2019-04-27T13:47:52.258Z,18.75
2019-04-27T13:50:29.955Z,19.07
2019-04-27T13:52:59.052Z,24.77
2019-04-27T13:55:28.042Z,15.68
2019-04-27T13:57:57.272Z,20.80
2019-04-27T14:00:26.339Z,16.55
2019-04-27T14:02:57.922Z,18.30
2019-04-27T14:05:26.983Z,19.15
2019-04-27T14:08:00.833Z,22.07
2019-04-27T14:10:29.890Z,20.85
2019-04-27T14:12:59.213Z,20.70
2019-04-27T14:15:28.913Z,17.27
2019-04-27T14:17:59.165Z,20.88
2019-04-27T14:20:34.555Z,18.77
2019-04-27T14:23:18.807Z,21.60
2019-04-27T14:25:50.481Z,22.77
2019-04-27T14:28:19.658Z,21.05
2019-04-27T14:30:51.127Z,23.87
2019-04-27T14:33:20.206Z,21.65
2019-04-27T14:35:49.987Z,26.17
2019-04-27T14:38:23.426Z,21.10
2019-04-27T14:40:52.608Z,24.00
2019-04-27T14:43:21.703Z,20.15
2019-04-27T14:45:50.799Z,24.32
2019-04-27T14:48:19.891Z,23.20
2019-04-27T14:50:51.296Z,19.27
2019-04-27T14:53:20.552Z,26.75
2019-04-27T14:55:49.327Z,25.02
2019-04-27T14:58:19.153Z,25.25
2019-04-27T15:00:49.882Z,16.90
2019-04-27T15:03:21.645Z,23.22
2019-04-27T15:05:53.800Z,21.23
2019-04-27T15:08:22.011Z,19.73
2019-04-27T15:10:51.174Z,21.55
2019-04-27T15:13:21.100Z,21.55
2019-04-27T15:15:52.755Z,22.55
2019-04-27T15:18:24.358Z,20.88
2019-04-27T15:20:54.509Z,24.43
2019-04-27T15:23:26.645Z,19.67
2019-04-27T15:25:55.467Z,20.20
2019-04-27T15:28:26.197Z,22.75
2019-04-27T15:30:59.663Z,20.27
2019-04-27T15:36:28.298Z,20.02
2019-04-27T15:38:59.132Z,20.65
2019-04-27T15:41:41.947Z,19.02
2019-04-27T15:44:12.800Z,20.97
2019-04-27T15:46:43.620Z,25.57
2019-04-27T15:49:12.730Z,17.73
2019-04-27T15:51:42.175Z,20.52
2019-04-27T15:54:15.567Z,18.52
2019-04-27T15:56:44.606Z,14.93
2019-04-27T15:59:13.703Z,17.00
2019-04-27T16:01:43.003Z,17.87
2019-04-27T16:04:12.321Z,26.97
2019-04-27T16:06:42.912Z,19.82
2019-04-27T16:09:16.145Z,21.10
2019-04-27T16:11:50.194Z,20.63
2019-04-27T16:14:15.674Z,20.17
2019-04-27T16:16:45.761Z,21.37
2019-04-27T16:19:15.166Z,17.80
2019-04-27T16:21:47.691Z,23.22
2019-04-27T16:24:16.916Z,20.27
2019-04-27T16:26:54.701Z,17.62
2019-04-27T16:29:27.071Z,21.50
2019-04-27T16:31:54.057Z,21.57
2019-04-27T16:34:23.595Z,19.80
2019-04-27T16:36:52.856Z,19.07
2019-04-27T16:39:23.223Z,18.17
2019-04-27T16:41:52.383Z,21.73
2019-04-27T16:44:21.473Z,17.98
2019-04-27T16:46:50.575Z,17.35
2019-04-27T16:49:21.813Z,15.23
2019-04-27T16:51:51.021Z,23.27
2019-04-27T16:54:21.268Z,17.37
2019-04-27T16:57:02.189Z,19.87
2019-04-27T17:01:58.861Z,18.25
2019-04-27T17:04:29.089Z,29.98
2019-04-27T17:06:59.088Z,19.70
2019-04-27T17:09:29.279Z,18.32
2019-04-27T17:12:00.780Z,15.40
2019-04-27T17:12:40.261Z,13.70
2019-04-27T17:14:43.589Z,17.15
2019-04-27T17:17:30.604Z,18.30
2019-04-27T17:20:03.829Z,17.23
2019-04-27T17:22:33.923Z,20.65
2019-04-27T17:25:03.011Z,14.93
2019-04-27T17:27:33.763Z,18.77
2019-04-27T17:30:10.246Z,31.05
2019-04-27T17:32:40.845Z,20.92
2019-04-27T17:35:14.742Z,18.10
2019-04-27T17:37:43.139Z,19.25
2019-04-27T17:40:16.623Z,20.57
2019-04-27T17:42:48.384Z,16.93
2019-04-27T17:45:21.377Z,16.25
2019-04-27T17:47:50.543Z,18.70
2019-04-27T17:50:25.073Z,21.25
2019-04-27T17:52:55.003Z,19.85
2019-04-27T17:55:24.535Z,32.83
2019-04-27T17:57:52.774Z,28.75
2019-04-27T18:00:22.729Z,17.60
2019-04-27T18:02:54.109Z,19.15
2019-04-27T18:05:23.235Z,21.17
2019-04-27T18:07:53.220Z,27.62
2019-04-27T18:10:24.281Z,21.42
2019-04-27T18:12:53.199Z,19.90
2019-04-27T18:15:22.275Z,20.48
2019-04-27T18:18:01.516Z,19.05
2019-04-27T18:20:31.561Z,20.85
2019-04-27T18:23:02.394Z,19.80
2019-04-27T18:25:35.595Z,20.27
2019-04-27T18:28:16.129Z,23.45
2019-04-27T18:31:00.983Z,24.72
2019-04-27T18:33:32.632Z,28.67
2019-04-27T18:36:05.215Z,31.12
2019-04-27T18:38:35.438Z,24.15
2019-04-27T18:41:08.139Z,21.02
2019-04-27T18:43:35.672Z,21.60
2019-04-27T18:46:05.406Z,24.37
2019-04-27T18:48:37.766Z,24.50
2019-04-27T18:51:25.072Z,22.70
2019-04-27T18:54:03.569Z,28.92
2019-04-27T18:56:44.664Z,41.53
2019-04-27T18:59:21.549Z,83.70
2019-04-27T19:01:50.736Z,109.27
2019-04-27T19:04:23.363Z,52.17
2019-04-27T19:07:00.034Z,44.33
2019-04-27T19:09:29.081Z,30.00
2019-04-27T19:12:01.864Z,35.73
2019-04-27T19:14:30.973Z,31.07
2019-04-27T19:17:00.053Z,30.65
2019-04-27T19:19:29.147Z,40.50
2019-04-27T19:22:02.234Z,39.55
2019-04-27T19:24:35.375Z,39.10
2019-04-27T19:27:22.749Z,35.98
2019-04-27T19:29:56.450Z,33.58
2019-04-27T19:34:54.332Z,20.97
2019-04-27T19:37:23.444Z,27.30
2019-04-27T19:39:58.246Z,31.55
2019-04-27T19:42:28.562Z,26.97
2019-04-27T19:44:57.917Z,27.55
2019-04-27T19:47:27.096Z,34.03
2019-04-27T19:49:56.176Z,38.50
2019-04-27T19:52:29.262Z,44.08
2019-04-27T19:54:58.548Z,27.02
2019-04-27T19:57:36.398Z,26.25
2019-04-27T20:00:02.180Z,27.17
2019-04-27T20:02:31.392Z,29.35
2019-04-27T20:05:02.007Z,27.80
2019-04-27T20:07:31.100Z,25.30
2019-04-27T20:10:00.715Z,25.82
2019-04-27T20:12:31.328Z,35.95
2019-04-27T20:15:04.035Z,24.25
2019-04-27T20:17:33.427Z,25.57
2019-04-27T20:20:03.922Z,37.48
2019-04-27T20:22:35.306Z,27.80
2019-04-27T20:25:05.822Z,29.25
2019-04-27T20:27:45.971Z,26.90
2019-04-27T20:30:11.112Z,28.92
2019-04-27T20:32:40.502Z,28.70
2019-04-27T20:35:11.646Z,23.70
2019-04-27T20:37:41.546Z,26.52
2019-04-27T20:40:11.610Z,26.80
2019-04-27T20:42:41.530Z,29.52
2019-04-27T20:45:12.040Z,31.23
2019-04-27T20:47:41.297Z,25.77
2019-04-27T20:50:10.396Z,28.90
2019-04-27T20:52:41.126Z,24.67
2019-04-27T20:55:11.268Z,23.75
2019-04-27T20:57:41.671Z,24.77
2019-04-27T21:00:12.194Z,21.37
2019-04-27T21:03:01.976Z,25.48
2019-04-27T21:05:32.711Z,23.47
2019-04-27T21:08:03.443Z,26.23
2019-04-27T21:10:32.665Z,28.85
2019-04-27T21:13:01.840Z,19.77
2019-04-27T21:15:31.501Z,19.10
2019-04-27T21:18:01.292Z,18.67
2019-04-27T21:20:30.976Z,22.62
2019-04-27T21:23:01.925Z,14.85
2019-04-27T21:25:31.524Z,17.77
2019-04-27T21:28:14.913Z,18.00
2019-04-27T21:30:32.465Z,17.60
2019-04-27T21:33:02.588Z,20.10
2019-04-27T21:35:31.677Z,22.00
2019-04-27T21:38:01.548Z,19.30
2019-04-27T21:40:31.612Z,16.12
2019-04-27T21:43:01.161Z,14.55
2019-04-27T21:45:31.783Z,18.90
2019-04-27T21:48:01.047Z,17.70
2019-04-27T21:50:31.439Z,15.60
2019-04-27T21:53:17.378Z,18.65
2019-04-27T21:55:47.999Z,13.75
2019-04-27T21:58:28.603Z,16.48
2019-04-27T22:00:52.939Z,11.60
2019-04-27T22:03:23.652Z,16.45
2019-04-27T22:05:52.971Z,14.65
2019-04-27T22:08:22.170Z,13.45
2019-04-27T22:10:51.265Z,16.05
2019-04-27T22:13:22.213Z,16.50
2019-04-27T22:15:52.012Z,18.65
2019-04-27T22:18:21.268Z,17.25
2019-04-27T22:20:54.503Z,12.58
2019-04-27T22:23:25.012Z,12.82
2019-04-27T22:25:58.119Z,14.40
2019-04-27T22:28:27.214Z,12.68
2019-04-27T22:30:56.515Z,15.18
2019-04-27T22:33:25.612Z,12.30
2019-04-27T22:35:54.807Z,11.38
2019-04-27T22:38:25.137Z,14.20
2019-04-27T22:40:58.526Z,12.75
2019-04-27T22:43:37.874Z,12.78
2019-04-27T22:46:08.491Z,11.50
2019-04-27T22:48:37.554Z,14.85
2019-04-27T22:51:09.218Z,11.95
2019-04-27T22:53:38.334Z,14.93
2019-04-27T22:56:13.472Z,15.53
2019-04-27T22:59:01.672Z,13.58
2019-04-27T23:01:34.599Z,12.47
2019-04-27T23:04:12.603Z,11.08
2019-04-27T23:06:41.902Z,16.82
2019-04-27T23:09:11.922Z,13.38
2019-04-27T23:11:41.501Z,13.25
2019-04-27T23:14:13.390Z,15.83
2019-04-27T23:16:44.014Z,14.73
2019-04-27T23:19:13.050Z,15.05
2019-04-27T23:21:42.204Z,15.93
2019-04-27T23:24:11.299Z,12.00
2019-04-27T23:26:40.330Z,15.28
2019-04-27T23:29:14.663Z,10.63
2019-04-27T23:31:57.731Z,11.80
2019-04-27T23:34:28.029Z,13.72
2019-04-27T23:36:57.253Z,14.93
2019-04-27T23:39:29.014Z,10.60
2019-04-27T23:41:56.978Z,13.15
2019-04-27T23:44:26.075Z,11.05
2019-04-27T23:46:55.170Z,10.48
2019-04-27T23:49:24.264Z,11.10
2019-04-27T23:52:00.940Z,15.03
2019-04-27T23:54:31.058Z,13.93
2019-04-27T23:57:01.733Z,17.40
2019-04-27T23:59:31.523Z,13.40
